createdAt,value
2018-09-15T00:01:34.344Z,16.37
2018-09-15T00:04:03.239Z,18.23
2018-09-15T00:06:31.820Z,21.47
2018-09-15T00:09:00.505Z,16.83
2018-09-15T00:11:29.192Z,17.57
2018-09-15T00:13:57.879Z,20.77
2018-09-15T00:16:26.262Z,18.37
2018-09-15T00:18:54.941Z,20.30
2018-09-15T00:21:23.624Z,21.73
2018-09-15T00:23:52.312Z,21.27
2018-09-15T00:26:20.693Z,22.47
2018-09-15T00:28:49.373Z,22.57
2018-09-15T00:31:18.150Z,27.87
2018-09-15T00:33:47.259Z,33.27
2018-09-15T00:36:15.739Z,36.40
2018-09-15T00:38:44.325Z,45.87
2018-09-15T00:41:12.797Z,41.23
2018-09-15T00:43:41.179Z,50.77
2018-09-15T00:46:09.864Z,51.83
2018-09-15T00:48:38.758Z,53.27
2018-09-15T00:51:07.541Z,49.13
2018-09-15T00:53:36.226Z,51.67
2018-09-15T00:56:04.712Z,46.67
2018-09-15T00:58:33.595Z,43.40
2018-09-15T01:01:02.183Z,51.87
2018-09-15T01:03:30.762Z,48.47
2018-09-15T01:05:59.553Z,43.73
2018-09-15T01:08:28.250Z,52.07
2018-09-15T01:10:56.724Z,48.50
2018-09-15T01:13:25.711Z,56.97
2018-09-15T01:15:54.289Z,67.57
2018-09-15T01:18:22.976Z,63.40
2018-09-15T01:20:51.762Z,41.50
2018-09-15T01:23:20.347Z,35.73
2018-09-15T01:25:48.933Z,31.93
2018-09-15T01:28:17.369Z,31.83
2018-09-15T01:30:45.993Z,34.80
2018-09-15T01:33:14.485Z,32.00
2018-09-15T01:35:43.261Z,30.03
2018-09-15T01:38:11.947Z,32.83
2018-09-15T01:40:40.638Z,34.77
2018-09-15T01:43:09.321Z,38.67
2018-09-15T01:45:37.903Z,37.43
2018-09-15T01:48:06.381Z,31.93
2018-09-15T01:50:34.862Z,33.97
2018-09-15T01:53:03.548Z,28.33
2018-09-15T01:55:32.025Z,28.60
2018-09-15T01:58:00.712Z,42.23
2018-09-15T02:00:29.809Z,41.47
2018-09-15T02:02:58.495Z,38.73
2018-09-15T02:05:27.797Z,28.00
2018-09-15T02:07:56.377Z,23.57
2018-09-15T02:10:24.923Z,23.37
2018-09-15T02:12:53.336Z,23.90
2018-09-15T02:15:21.728Z,25.00
2018-09-15T02:17:50.182Z,25.50
2018-09-15T02:20:18.684Z,26.53
2018-09-15T02:22:47.305Z,25.20
2018-09-15T02:25:15.845Z,28.37
2018-09-15T02:27:44.532Z,29.33
2018-09-15T02:30:13.218Z,32.00
2018-09-15T02:32:41.900Z,37.17
2018-09-15T02:35:10.890Z,32.27
2018-09-15T02:37:39.476Z,34.87
2018-09-15T02:40:08.266Z,38.97
2018-09-15T02:42:36.742Z,40.50
2018-09-15T02:45:05.531Z,38.00
2018-09-15T02:47:34.011Z,37.27
2018-09-15T02:50:03.209Z,38.03
2018-09-15T02:52:31.790Z,40.07
2018-09-15T02:55:00.290Z,36.47
2018-09-15T02:57:28.958Z,37.10
2018-09-15T02:59:57.644Z,36.17
2018-09-15T03:02:26.334Z,33.50
2018-09-15T03:04:54.915Z,30.83
2018-09-15T03:07:23.388Z,33.93
2018-09-15T03:09:52.079Z,40.33
2018-09-15T03:12:21.220Z,40.90
2018-09-15T03:14:49.860Z,41.53
2018-09-15T03:17:18.448Z,35.20
2018-09-15T03:19:47.436Z,38.57
2018-09-15T03:22:16.328Z,38.00
2018-09-15T03:24:44.907Z,36.70
2018-09-15T03:27:13.693Z,40.53
2018-09-15T03:29:42.276Z,37.03
2018-09-15T03:32:10.859Z,37.90
2018-09-15T03:34:39.351Z,35.07
2018-09-15T03:37:08.128Z,36.57
2018-09-15T03:39:36.620Z,35.23
2018-09-15T03:42:05.602Z,36.07
2018-09-15T03:44:34.390Z,36.30
2018-09-15T03:47:02.974Z,39.50
2018-09-15T03:49:31.556Z,41.13
2018-09-15T03:52:00.347Z,39.93
2018-09-15T03:54:28.927Z,36.53
2018-09-15T03:56:57.511Z,31.63
2018-09-15T03:59:26.297Z,34.50
2018-09-15T04:01:55.292Z,36.00
2018-09-15T04:04:23.871Z,39.40
2018-09-15T04:06:52.456Z,50.13
2018-09-15T04:09:21.041Z,47.90
2018-09-15T04:11:49.621Z,41.33
2018-09-15T04:14:18.307Z,46.30
2018-09-15T04:16:46.993Z,43.40
2018-09-15T04:19:15.682Z,38.33
2018-09-15T04:21:44.305Z,38.77
2018-09-15T04:24:13.052Z,34.80
2018-09-15T04:26:41.376Z,26.13
2018-09-15T04:29:09.802Z,27.80
2018-09-15T04:31:38.595Z,26.53
2018-09-15T04:34:07.383Z,22.77
2018-09-15T04:36:35.962Z,19.57
2018-09-15T04:39:06.306Z,16.60
2018-09-15T04:41:34.999Z,14.90
2018-09-15T04:44:03.574Z,14.63
2018-09-15T04:46:32.143Z,15.60
2018-09-15T04:49:00.822Z,14.53
2018-09-15T04:51:29.508Z,17.77
2018-09-15T04:53:58.303Z,13.00
2018-09-15T04:56:27.492Z,14.63
2018-09-15T04:58:56.255Z,14.13
2018-09-15T05:01:25.070Z,17.67
2018-09-15T05:03:53.549Z,33.33
2018-09-15T05:06:22.175Z,65.90
2018-09-15T05:08:50.820Z,46.83
2018-09-15T05:11:19.263Z,34.43
2018-09-15T05:13:47.882Z,31.43
2018-09-15T05:16:16.468Z,32.33
2018-09-15T05:18:44.949Z,32.13
2018-09-15T05:21:13.736Z,41.83
2018-09-15T05:23:42.519Z,34.83
2018-09-15T05:26:11.248Z,39.67
2018-09-15T05:28:39.694Z,40.40
2018-09-15T05:31:08.481Z,37.07
2018-09-15T05:33:37.160Z,40.37
2018-09-15T05:36:05.640Z,53.10
2018-09-15T05:38:34.436Z,45.43
2018-09-15T05:41:03.115Z,46.10
2018-09-15T05:43:31.901Z,49.80
2018-09-15T05:46:00.586Z,46.67
2018-09-15T05:48:28.963Z,40.90
2018-09-15T05:50:57.649Z,37.10
2018-09-15T05:53:26.335Z,38.53
2018-09-15T05:55:55.049Z,39.03
2018-09-15T05:58:23.603Z,31.00
2018-09-15T06:00:52.712Z,34.27
2018-09-15T06:03:21.181Z,33.77
2018-09-15T06:05:50.068Z,32.70
2018-09-15T06:08:18.856Z,35.37
2018-09-15T06:10:47.335Z,35.65
2018-09-15T06:13:16.029Z,38.10
2018-09-15T06:15:44.513Z,30.77
2018-09-15T06:18:13.815Z,30.47
2018-09-15T06:20:42.417Z,30.47
2018-09-15T06:23:10.865Z,27.50
2018-09-15T06:25:39.550Z,34.03
2018-09-15T06:28:08.241Z,27.07
2018-09-15T06:30:36.820Z,24.00
2018-09-15T06:33:05.506Z,27.70
2018-09-15T06:35:34.115Z,25.37
2018-09-15T06:38:02.568Z,21.60
2018-09-15T06:40:31.666Z,28.43
2018-09-15T06:43:00.554Z,22.37
2018-09-15T06:45:29.464Z,23.07
2018-09-15T06:47:57.927Z,17.83
2018-09-15T06:50:27.042Z,19.00
2018-09-15T06:52:55.604Z,15.63
2018-09-15T06:55:24.288Z,11.78
2018-09-15T06:57:52.977Z,12.85
2018-09-15T07:00:21.554Z,15.93
2018-09-15T07:02:50.241Z,14.30
2018-09-15T07:05:18.834Z,19.62
2018-09-15T07:07:47.509Z,9.90
2018-09-15T07:10:16.199Z,14.03
2018-09-15T07:12:44.776Z,10.43
2018-09-15T07:15:13.155Z,11.45
2018-09-15T07:17:41.841Z,9.53
2018-09-15T07:20:10.349Z,10.30
2018-09-15T07:22:38.907Z,12.20
2018-09-15T07:25:07.692Z,11.73
2018-09-15T07:27:36.481Z,9.60
2018-09-15T07:30:05.068Z,10.25
2018-09-15T07:32:33.436Z,9.83
2018-09-15T07:35:01.923Z,11.50
2018-09-15T07:37:30.561Z,9.77
2018-09-15T07:39:58.989Z,10.40
2018-09-15T07:42:27.475Z,9.23
2018-09-15T07:44:55.953Z,11.07
2018-09-15T07:47:24.538Z,8.90
2018-09-15T07:50:30.021Z,9.27
2018-09-15T07:53:22.752Z,9.13
2018-09-15T07:55:51.412Z,8.97
2018-09-15T07:58:20.223Z,8.77
2018-09-15T08:00:48.471Z,12.77
2018-09-15T08:03:16.870Z,10.10
2018-09-15T08:05:45.439Z,10.33
2018-09-15T08:08:14.025Z,9.37
2018-09-15T08:10:42.909Z,10.53
2018-09-15T08:13:11.599Z,13.00
2018-09-15T08:15:40.279Z,11.93
2018-09-15T08:18:08.869Z,14.17
2018-09-15T08:20:37.563Z,9.03
2018-09-15T08:23:06.233Z,8.00
2018-09-15T08:25:35.332Z,8.13
2018-09-15T08:28:03.913Z,15.70
2018-09-15T08:30:32.599Z,8.33
2018-09-15T08:33:01.180Z,10.07
2018-09-15T08:35:29.969Z,9.23
2018-09-15T08:37:58.553Z,8.77
2018-09-15T08:40:27.140Z,11.80
2018-09-15T08:42:55.822Z,10.57
2018-09-15T08:45:24.606Z,10.77
2018-09-15T08:47:53.193Z,10.53
2018-09-15T08:50:21.774Z,11.87
2018-09-15T08:52:49.954Z,12.00
2018-09-15T08:55:18.529Z,13.50
2018-09-15T08:57:47.218Z,12.57
2018-09-15T09:00:15.586Z,9.90
2018-09-15T09:02:44.384Z,13.67
2018-09-15T09:05:13.167Z,9.63
2018-09-15T09:07:41.664Z,12.77
2018-09-15T09:10:10.027Z,13.03
2018-09-15T09:12:38.510Z,7.87
2018-09-15T09:15:07.196Z,8.83
2018-09-15T09:17:36.089Z,7.50
2018-09-15T09:20:05.042Z,6.87
2018-09-15T09:22:33.456Z,6.87
2018-09-15T09:25:02.854Z,9.50
2018-09-15T09:27:31.337Z,12.10
2018-09-15T09:29:59.919Z,6.73
2018-09-15T09:32:28.508Z,10.60
2018-09-15T09:34:56.882Z,8.30
2018-09-15T09:37:25.297Z,8.67
2018-09-15T09:39:54.046Z,11.33
2018-09-15T09:42:22.834Z,8.23
2018-09-15T09:44:51.626Z,8.77
2018-09-15T09:47:20.311Z,12.37
2018-09-15T09:49:48.788Z,8.17
2018-09-15T09:52:17.370Z,9.13
2018-09-15T09:54:46.060Z,9.50
2018-09-15T09:57:14.567Z,12.73
2018-09-15T09:59:42.962Z,6.37
2018-09-15T10:02:15.183Z,7.03
2018-09-15T10:04:43.578Z,5.47
2018-09-15T10:07:11.834Z,7.37
2018-09-15T10:09:40.013Z,7.20
2018-09-15T10:12:08.800Z,8.20
2018-09-15T10:14:37.382Z,8.57
2018-09-15T10:17:05.862Z,6.53
2018-09-15T10:19:33.988Z,18.87
2018-09-15T10:22:02.422Z,7.30
2018-09-15T10:24:30.899Z,5.57
2018-09-15T10:26:59.387Z,5.90
2018-09-15T10:29:27.961Z,5.67
2018-09-15T10:31:56.852Z,7.23
2018-09-15T10:34:25.227Z,7.03
2018-09-15T10:36:53.912Z,6.37
2018-09-15T10:39:22.403Z,7.63
2018-09-15T10:41:51.080Z,9.83
2018-09-15T10:44:19.764Z,5.80
2018-09-15T10:46:48.326Z,12.43
2018-09-15T10:49:16.727Z,5.45
2018-09-15T10:51:45.311Z,8.00
2018-09-15T10:54:13.891Z,7.25
2018-09-15T10:56:42.371Z,7.17
2018-09-15T10:59:11.064Z,6.33
2018-09-15T11:01:39.753Z,5.58
2018-09-15T11:04:08.324Z,7.55
2018-09-15T11:06:36.712Z,10.18
2018-09-15T11:09:07.030Z,6.87
2018-09-15T11:11:35.513Z,7.35
2018-09-15T11:14:03.986Z,6.47
2018-09-15T11:16:32.571Z,6.35
2018-09-15T11:19:01.257Z,6.03
2018-09-15T11:21:29.838Z,5.67
2018-09-15T11:23:58.628Z,7.55
2018-09-15T11:26:27.311Z,7.58
2018-09-15T11:28:56.136Z,6.10
2018-09-15T11:31:24.683Z,7.70
2018-09-15T11:33:53.169Z,6.53
2018-09-15T11:36:21.743Z,5.83
2018-09-15T11:38:50.231Z,6.47
2018-09-15T11:41:18.893Z,8.58
2018-09-15T11:43:47.552Z,6.05
2018-09-15T11:46:15.874Z,6.72
2018-09-15T11:48:44.457Z,8.13
2018-09-15T11:51:13.151Z,6.95
2018-09-15T11:53:41.735Z,6.90
2018-09-15T11:56:10.616Z,6.58
2018-09-15T11:58:39.198Z,6.28
2018-09-15T12:01:07.785Z,7.30
2018-09-15T12:03:36.363Z,6.08
2018-09-15T12:06:04.948Z,5.03
2018-09-15T12:08:33.738Z,6.10
2018-09-15T12:11:02.318Z,5.30
2018-09-15T12:13:30.710Z,6.55
2018-09-15T12:15:59.280Z,4.87
2018-09-15T12:18:27.865Z,5.22
2018-09-15T12:20:56.548Z,5.35
2018-09-15T12:23:24.931Z,5.05
2018-09-15T12:25:53.345Z,5.83
2018-09-15T12:28:21.892Z,5.67
2018-09-15T12:30:50.367Z,5.17
2018-09-15T12:33:18.993Z,5.17
2018-09-15T12:35:47.741Z,4.67
2018-09-15T12:38:16.430Z,6.25
2018-09-15T12:40:45.006Z,8.00
2018-09-15T12:43:13.592Z,7.87
2018-09-15T12:45:42.176Z,6.17
2018-09-15T12:48:10.961Z,6.58
2018-09-15T12:50:39.446Z,7.25
2018-09-15T12:53:07.922Z,5.45
2018-09-15T12:55:36.404Z,5.47
2018-09-15T12:58:05.090Z,5.77
2018-09-15T13:00:33.676Z,5.63
2018-09-15T13:03:02.255Z,6.67
2018-09-15T13:05:30.640Z,7.07
2018-09-15T13:07:59.218Z,5.43
2018-09-15T13:10:27.805Z,5.77
2018-09-15T13:12:56.278Z,6.13
2018-09-15T13:15:25.047Z,5.30
2018-09-15T13:17:53.446Z,5.60
2018-09-15T13:20:21.658Z,5.60
2018-09-15T13:22:50.305Z,6.07
2018-09-15T13:25:18.930Z,5.13
2018-09-15T13:27:47.274Z,5.67
2018-09-15T13:30:15.997Z,5.80
2018-09-15T13:32:44.635Z,6.37
2018-09-15T13:35:13.242Z,5.77
2018-09-15T13:37:41.811Z,5.83
2018-09-15T13:40:10.384Z,5.83
2018-09-15T13:42:38.966Z,6.17
2018-09-15T13:45:07.088Z,5.73
2018-09-15T13:47:35.827Z,5.70
2018-09-15T13:50:04.523Z,7.03
2018-09-15T13:52:33.095Z,7.33
2018-09-15T13:55:01.784Z,6.43
2018-09-15T13:57:30.160Z,5.90
2018-09-15T13:59:58.549Z,5.50
2018-09-15T14:02:27.222Z,6.93
2018-09-15T14:04:55.913Z,8.27
2018-09-15T14:07:24.284Z,9.27
2018-09-15T14:09:52.978Z,6.60
2018-09-15T14:12:21.468Z,6.00
2018-09-15T14:14:50.036Z,6.80
2018-09-15T14:17:18.617Z,6.53
2018-09-15T14:19:47.202Z,6.73
2018-09-15T14:22:16.038Z,7.23
2018-09-15T14:24:44.570Z,7.13
2018-09-15T14:27:13.155Z,6.40
2018-09-15T14:29:41.754Z,5.77
2018-09-15T14:32:10.322Z,8.73
2018-09-15T14:34:39.106Z,6.73
2018-09-15T14:37:07.690Z,6.30
2018-09-15T14:39:36.272Z,5.70
2018-09-15T14:42:04.763Z,7.97
2018-09-15T14:44:33.438Z,6.10
2018-09-15T14:47:02.125Z,12.43
2018-09-15T14:49:30.710Z,6.43
2018-09-15T14:51:59.198Z,7.67
2018-09-15T14:54:27.686Z,7.93
2018-09-15T14:56:56.355Z,6.17
2018-09-15T14:59:24.638Z,7.40
2018-09-15T15:01:53.113Z,6.97
2018-09-15T15:04:21.805Z,7.63
2018-09-15T15:06:50.686Z,7.47
2018-09-15T15:09:19.169Z,7.90
2018-09-15T15:11:47.854Z,8.93
2018-09-15T15:14:16.642Z,7.60
2018-09-15T15:16:45.227Z,6.53
2018-09-15T15:19:13.809Z,7.30
2018-09-15T15:21:42.495Z,8.53
2018-09-15T15:24:10.982Z,7.23
2018-09-15T15:26:39.440Z,9.07
2018-09-15T15:29:07.837Z,9.87
2018-09-15T15:31:43.099Z,9.43
2018-09-15T15:34:11.655Z,6.73
2018-09-15T15:36:40.145Z,7.57
2018-09-15T15:39:09.227Z,7.10
2018-09-15T15:41:37.707Z,8.63
2018-09-15T15:44:06.189Z,7.33
2018-09-15T15:46:34.874Z,7.57
2018-09-15T15:49:04.082Z,7.37
2018-09-15T15:51:33.037Z,7.57
2018-09-15T15:54:01.342Z,6.47
2018-09-15T15:56:29.744Z,7.77
2018-09-15T15:58:57.919Z,6.63
2018-09-15T16:01:26.577Z,7.07
2018-09-15T16:03:55.268Z,7.47
2018-09-15T16:06:23.645Z,10.77
2018-09-15T16:08:52.448Z,9.97
2018-09-15T16:11:21.639Z,7.53
2018-09-15T16:13:50.588Z,9.13
2018-09-15T16:16:19.202Z,8.43
2018-09-15T16:18:48.093Z,8.60
2018-09-15T16:21:16.572Z,9.80
2018-09-15T16:23:45.358Z,7.43
2018-09-15T16:26:13.946Z,8.57
2018-09-15T16:28:42.427Z,8.53
2018-09-15T16:31:10.814Z,10.17
2018-09-15T16:33:38.997Z,7.50
2018-09-15T16:36:07.133Z,9.33
2018-09-15T16:38:35.837Z,8.27
2018-09-15T16:41:04.625Z,7.70
2018-09-15T16:43:33.207Z,8.17
2018-09-15T16:46:01.787Z,8.00
2018-09-15T16:48:31.106Z,10.63
2018-09-15T16:50:59.326Z,10.97
2018-09-15T16:53:27.493Z,9.57
2018-09-15T16:55:55.768Z,10.90
2018-09-15T16:58:24.295Z,9.57
2018-09-15T17:00:52.877Z,9.93
2018-09-15T17:03:21.435Z,8.33
2018-09-15T17:05:50.045Z,7.90
2018-09-15T17:08:18.305Z,10.50
2018-09-15T17:10:46.902Z,14.80
2018-09-15T17:13:15.504Z,9.30
2018-09-15T17:15:44.271Z,10.37
2018-09-15T17:18:12.862Z,12.87
2018-09-15T17:20:41.433Z,9.93
2018-09-15T17:23:10.032Z,10.03
2018-09-15T17:25:38.502Z,10.20
2018-09-15T17:28:07.292Z,9.43
2018-09-15T17:30:42.539Z,13.60
2018-09-15T17:33:11.112Z,16.00
2018-09-15T17:35:39.695Z,15.30
2018-09-15T17:38:08.280Z,11.33
2018-09-15T17:40:36.963Z,12.70
2018-09-15T17:43:05.442Z,11.93
2018-09-15T17:45:34.020Z,10.00
2018-09-15T17:48:02.714Z,11.10
2018-09-15T17:50:31.095Z,12.87
2018-09-15T17:52:59.577Z,13.00
2018-09-15T17:55:28.055Z,10.93
2018-09-15T17:57:56.633Z,14.35
2018-09-15T18:00:24.909Z,14.73
2018-09-15T18:02:53.028Z,13.67
2018-09-15T18:05:21.162Z,13.23
2018-09-15T18:07:50.044Z,12.60
2018-09-15T18:10:18.729Z,11.97
2018-09-15T18:12:47.323Z,13.83
2018-09-15T18:15:15.896Z,14.50
2018-09-15T18:17:43.991Z,12.83
2018-09-15T18:20:12.652Z,12.70
2018-09-15T18:22:41.131Z,11.67
2018-09-15T18:25:09.323Z,12.17
2018-09-15T18:27:37.786Z,11.90
2018-09-15T18:30:06.777Z,13.03
2018-09-15T18:32:35.465Z,13.30
2018-09-15T18:35:04.046Z,12.33
2018-09-15T18:37:32.527Z,13.90
2018-09-15T18:40:01.211Z,15.67
2018-09-15T18:42:29.794Z,12.43
2018-09-15T18:44:58.202Z,12.83
2018-09-15T18:47:26.771Z,13.80
2018-09-15T18:49:55.237Z,12.80
2018-09-15T18:52:23.818Z,14.47
2018-09-15T18:54:52.609Z,12.00
2018-09-15T18:57:21.091Z,12.60
2018-09-15T18:59:49.579Z,11.67
2018-09-15T19:02:18.257Z,12.63
2018-09-15T19:04:46.941Z,14.73
2018-09-15T19:07:15.317Z,13.00
2018-09-15T19:09:44.006Z,13.73
2018-09-15T19:12:12.586Z,15.20
2018-09-15T19:14:41.275Z,17.30
2018-09-15T19:17:09.858Z,19.20
2018-09-15T19:19:37.990Z,22.93
2018-09-15T19:22:06.406Z,22.63
2018-09-15T19:24:35.297Z,21.57
2018-09-15T19:27:03.999Z,20.33
2018-09-15T19:29:32.792Z,23.00
2018-09-15T19:32:01.607Z,22.37
2018-09-15T19:34:30.371Z,20.67
2018-09-15T19:36:59.251Z,20.97
2018-09-15T19:39:27.745Z,23.17
2018-09-15T19:41:56.361Z,20.00
2018-09-15T19:44:24.901Z,19.13
2018-09-15T19:46:53.586Z,18.87
2018-09-15T19:49:22.649Z,21.13
2018-09-15T19:51:51.558Z,21.37
2018-09-15T19:54:20.043Z,27.17
2018-09-15T19:56:48.594Z,23.63
2018-09-15T19:59:17.645Z,23.47
2018-09-15T20:01:46.854Z,24.20
2018-09-15T20:04:15.431Z,26.30
2018-09-15T20:06:43.854Z,23.23
2018-09-15T20:09:12.876Z,24.80
2018-09-15T20:11:41.611Z,21.70
2018-09-15T20:14:10.575Z,21.17
2018-09-15T20:16:38.324Z,20.17
2018-09-15T20:19:06.281Z,22.43
2018-09-15T20:21:34.362Z,20.37
2018-09-15T20:24:02.852Z,18.83
2018-09-15T20:26:32.236Z,19.13
2018-09-15T20:29:01.231Z,20.77
2018-09-15T20:34:04.324Z,18.27
2018-09-15T20:36:32.907Z,20.23
2018-09-15T20:39:01.391Z,21.47
2018-09-15T20:41:29.868Z,17.67
2018-09-15T20:43:58.449Z,18.13
2018-09-15T20:46:27.035Z,21.40
2018-09-15T20:48:55.546Z,19.67
2018-09-15T20:51:24.203Z,18.40
2018-09-15T20:53:52.683Z,21.00
2018-09-15T20:56:21.263Z,21.23
2018-09-15T20:58:49.742Z,19.37
2018-09-15T21:01:18.531Z,21.17
2018-09-15T21:03:47.116Z,24.70
2018-09-15T21:06:15.570Z,26.07
2018-09-15T21:08:43.775Z,24.35
2018-09-15T21:11:11.911Z,23.13
2018-09-15T21:13:40.425Z,20.53
2018-09-15T21:16:08.550Z,20.33
2018-09-15T21:18:37.015Z,25.17
2018-09-15T21:21:05.196Z,21.27
2018-09-15T21:23:33.732Z,23.87
2018-09-15T21:26:01.977Z,23.53
2018-09-15T21:28:30.177Z,24.37
2018-09-15T21:30:58.635Z,19.53
2018-09-15T21:33:26.749Z,21.87
2018-09-15T21:35:54.959Z,17.97
2018-09-15T21:38:23.164Z,21.00
2018-09-15T21:40:51.355Z,16.43
2018-09-15T21:43:19.496Z,17.77
2018-09-15T21:45:47.652Z,15.83
2018-09-15T21:48:15.852Z,16.10
2018-09-15T21:50:44.022Z,15.77
2018-09-15T21:53:12.224Z,19.70
2018-09-15T21:55:40.340Z,17.57
2018-09-15T21:58:08.451Z,19.20
2018-09-15T22:00:36.715Z,17.40
2018-09-15T22:03:04.928Z,17.53
2018-09-15T22:05:33.192Z,16.37
2018-09-15T22:08:01.311Z,21.77
2018-09-15T22:10:29.592Z,15.23
2018-09-15T22:12:57.914Z,16.53
2018-09-15T22:15:27.058Z,19.60
2018-09-15T22:17:56.895Z,18.30
2018-09-15T22:20:25.097Z,15.03
2018-09-15T22:22:53.376Z,16.63
2018-09-15T22:25:21.553Z,16.33
2018-09-15T22:27:49.821Z,19.20
2018-09-15T22:30:18.399Z,19.27
2018-09-15T22:32:46.579Z,16.87
2018-09-15T22:35:14.822Z,16.10
2018-09-15T22:37:43.036Z,16.10
2018-09-15T22:40:11.308Z,18.17
2018-09-15T22:42:39.698Z,21.63
2018-09-15T22:45:07.895Z,15.87
2018-09-15T22:47:36.031Z,16.00
2018-09-15T22:50:04.917Z,15.83
2018-09-15T22:52:33.190Z,14.53
2018-09-15T22:55:01.507Z,15.77
2018-09-15T22:57:29.706Z,15.20
2018-09-15T22:59:58.129Z,15.43
2018-09-15T23:02:26.350Z,14.70
2018-09-15T23:04:54.491Z,15.17
2018-09-15T23:07:22.748Z,14.37
2018-09-15T23:09:50.927Z,14.70
2018-09-15T23:12:19.255Z,19.63
2018-09-15T23:14:47.729Z,14.07
2018-09-15T23:17:15.947Z,14.87
2018-09-15T23:19:44.295Z,14.63
2018-09-15T23:22:12.432Z,16.60
2018-09-15T23:24:40.885Z,16.50
2018-09-15T23:27:09.197Z,18.63
2018-09-15T23:29:37.438Z,23.90
2018-09-15T23:32:05.563Z,15.60
2018-09-15T23:34:33.911Z,15.93
2018-09-15T23:37:02.157Z,20.40
2018-09-15T23:39:30.355Z,17.17
2018-09-15T23:41:58.506Z,14.37
2018-09-15T23:44:26.727Z,13.37
2018-09-15T23:46:54.873Z,13.87
2018-09-15T23:49:22.998Z,12.67
2018-09-15T23:51:51.200Z,13.60
2018-09-15T23:54:19.441Z,14.30
2018-09-15T23:56:47.567Z,13.07
2018-09-15T23:59:15.697Z,13.00
